イカルイト の空港の天気 - METARとTAF

イカルイト空港 ( CYFB / YFB ) - カナダ ヌナブト準州イカルイト
飛行場実況気象(Metar)
観測時間07/22 14:00 EDT (07/22 18:00 UTC)
風向・風速北 9m/s 瞬間風速12m/s
視程10km以上
天気現象
全天の4割程度の雲 雲底高度 1830m
気温16℃
湿度63%
気圧1022.3hPa
METARCYFB 221800Z 36018G23KT 30SM SCT060 16/09 A3018 RMK SC4 SLP223
過去の天気等 Google飛行場航空写真 Wunderground天気予報

過去48時間のMETAR

飛行場予報(TAF)
発表時間: 7/22 13:39 EDT (7/22 17:39 UTC)
予報対象時間: 22日14時 EDT ~ 23日14時 EDT
風向・風速北北西 8m/s
視程10km以上
全天の4割程度の雲 雲底高度 3050m
22日14時 EDT ~ 22日18時 EDT に一時的に
全天の8割程度の雲 雲底高度 3050m
22日18時 EDT から
風向・風速西北西 5m/s
視程10km以上
全天の4割程度の雲 雲底高度 1220m
23日0時 EDT ~ 23日2時 EDT に徐々に
風向・風速不定 2m/s
23日10時 EDT から
風向・風速西 6m/s
視程10km以上
全天の8割程度の雲 雲底高度 910m
TAF CYFB 221739Z 2218/2318 33015KT P6SM SCT100
TEMPO 2218/2222 BKN100
FM222200 30010KT P6SM SCT040
BECMG 2304/2306 VRB03KT
FM231400 27012KT P6SM BKN030 RMK NXT FCST BY 230000Z